Time;durP1;ratioP1;P1;durP2;ratioP2;P2;SDS_P1;SDS_P2;PMS_P1;PMS_P2;Temp;Humidity;BMP_temperature;BMP_pressure;BME280_temperature;BME280_humidity;BME280_pressure;Samples;Min_cycle;Max_cycle;Signal;HPM_P1;HPM_P2
2021/04/03 00:00:58;;;;;;;4.97;1.25;;;;;;;;;;5065665;28;20048;-58
2021/04/03 00:03:25;;;;;;;1.83;0.70;;;;;;;;;;5060816;28;20037;-58
2021/04/03 00:05:52;;;;;;;1.40;0.80;;;;;;;;;;5061756;28;20056;-58
2021/04/03 00:08:21;;;;;;;2.28;0.70;;;;;;;;;;5066886;28;20404;-58
2021/04/03 00:10:54;;;;;;;1.30;0.60;;;;;;;;;;5046705;28;20052;-58
2021/04/03 00:13:21;;;;;;;0.85;0.70;;;;;;;;;;5061639;28;20070;-58
2021/04/03 00:15:47;;;;;;;1.17;0.80;;;;;;;;;;5063022;28;20048;-59
2021/04/03 00:18:15;;;;;;;2.20;1.02;;;;;;;;;;5057212;28;20044;-59
2021/04/03 00:20:46;;;;;;;1.08;0.98;;;;;;;;;;5062982;28;20044;-58
2021/04/03 00:23:14;;;;;;;1.83;0.88;;;;;;;;;;5060411;28;20110;-58
2021/04/03 00:25:40;;;;;;;3.58;0.95;;;;;;;;;;5061578;28;20116;-58
2021/04/03 00:28:06;;;;;;;2.20;0.80;;;;;;;;;;5064746;28;20416;-58
2021/04/03 00:30:33;;;;;;;2.30;0.60;;;;;;;;;;5066267;28;20086;-58
2021/04/03 00:33:02;;;;;;;3.83;0.90;;;;;;;;;;5063619;28;20040;-58
2021/04/03 00:35:30;;;;;;;1.88;0.75;;;;;;;;;;5065042;28;20492;-58
2021/04/03 00:37:56;;;;;;;2.63;0.88;;;;;;;;;;5058047;28;20036;-58
2021/04/03 00:40:25;;;;;;;9.73;0.85;;;;;;;;;;5060252;28;20438;-58
2021/04/03 00:42:51;;;;;;;3.30;1.00;;;;;;;;;;5057865;28;20447;-58
2021/04/03 00:45:19;;;;;;;3.42;1.13;;;;;;;;;;5058678;28;20041;-58
2021/04/03 00:47:45;;;;;;;1.33;0.88;;;;;;;;;;5064671;28;20072;-58
2021/04/03 00:50:12;;;;;;;3.00;1.17;;;;;;;;;;5063342;28;20480;-58
2021/04/03 00:52:40;;;;;;;2.10;0.80;;;;;;;;;;5054858;28;20094;-59
2021/04/03 00:55:08;;;;;;;2.75;0.95;;;;;;;;;;5050364;28;20078;-58
2021/04/03 00:57:36;;;;;;;2.33;1.05;;;;;;;;;;5067176;28;20416;-58
2021/04/03 01:00:03;;;;;;;1.47;0.70;;;;;;;;;;5053612;28;20044;-58
2021/04/03 01:02:31;;;;;;;1.15;0.90;;;;;;;;;;5048574;28;20132;-58
2021/04/03 01:04:59;;;;;;;3.67;0.90;;;;;;;;;;5050090;28;20048;-58
2021/04/03 01:07:27;;;;;;;4.90;1.15;;;;;;;;;;5051830;28;20642;-58
2021/04/03 01:09:53;;;;;;;6.72;1.02;;;;;;;;;;5055045;28;20049;-59
2021/04/03 01:12:31;;;;;;;2.28;1.02;;;;;;;;;;5068890;28;20040;-58
2021/04/03 01:15:03;;;;;;;2.88;0.80;;;;;;;;;;5067230;28;20396;-58
2021/04/03 01:17:49;;;;;;;1.20;0.80;;;;;;;;;;5053446;28;20048;-58
2021/04/03 01:20:35;;;;;;;1.75;1.00;;;;;;;;;;5053752;28;20049;-58
2021/04/03 01:23:20;;;;;;;3.40;1.15;;;;;;;;;;5065650;28;20041;-58
2021/04/03 01:26:06;;;;;;;1.60;0.93;;;;;;;;;;5048762;28;20052;-58
2021/04/03 01:28:47;;;;;;;0.67;0.67;;;;;;;;;;5063313;28;20061;-58
2021/04/03 01:31:14;;;;;;;2.17;0.98;;;;;;;;;;5065408;28;20055;-58
2021/04/03 01:33:45;;;;;;;0.70;0.65;;;;;;;;;;5054104;28;20737;-58
2021/04/03 01:36:18;;;;;;;2.20;1.05;;;;;;;;;;5057400;28;20134;-58
2021/04/03 01:38:46;;;;;;;2.33;0.95;;;;;;;;;;5060760;28;20110;-58
2021/04/03 01:41:18;;;;;;;3.65;1.00;;;;;;;;;;5051517;28;20040;-58
2021/04/03 01:43:45;;;;;;;1.15;0.82;;;;;;;;;;5060929;28;20048;-58
2021/04/03 01:46:15;;;;;;;3.05;0.70;;;;;;;;;;5068509;28;20131;-58
2021/04/03 01:48:42;;;;;;;3.67;0.80;;;;;;;;;;5067604;28;20428;-58
2021/04/03 01:51:13;;;;;;;3.50;1.15;;;;;;;;;;5049150;28;20668;-58
2021/04/03 01:53:40;;;;;;;5.60;1.27;;;;;;;;;;5065508;28;20052;-58
2021/04/03 01:56:10;;;;;;;2.97;1.05;;;;;;;;;;5065573;28;20391;-58
2021/04/03 01:58:39;;;;;;;4.78;1.20;;;;;;;;;;5069461;28;20048;-57
2021/04/03 02:01:09;;;;;;;1.13;0.88;;;;;;;;;;5054674;28;20527;-58
2021/04/03 02:03:36;;;;;;;2.75;0.93;;;;;;;;;;5054738;28;20053;-58
2021/04/03 02:06:06;;;;;;;1.70;0.75;;;;;;;;;;5049195;28;20049;-58
2021/04/03 02:08:50;;;;;;;1.25;0.80;;;;;;;;;;5053992;28;20500;-58
2021/04/03 02:11:36;;;;;;;2.10;1.25;;;;;;;;;;5064160;28;20427;-58
2021/04/03 02:14:17;;;;;;;2.47;0.90;;;;;;;;;;5066873;28;20049;-58
2021/04/03 02:16:45;;;;;;;4.18;1.15;;;;;;;;;;5051263;28;20444;-58
2021/04/03 02:19:12;;;;;;;5.00;1.20;;;;;;;;;;5066690;28;20061;-58
2021/04/03 02:21:40;;;;;;;1.75;0.93;;;;;;;;;;5066266;28;20064;-58
2021/04/03 02:24:06;;;;;;;3.05;1.25;;;;;;;;;;5051597;28;20139;-58
2021/04/03 02:26:33;;;;;;;1.10;0.90;;;;;;;;;;5051721;28;20100;-58
2021/04/03 02:29:00;;;;;;;1.75;0.90;;;;;;;;;;5051231;28;20048;-58
2021/04/03 02:31:28;;;;;;;3.80;0.90;;;;;;;;;;5040714;28;20041;-58
2021/04/03 02:33:54;;;;;;;2.28;0.93;;;;;;;;;;5041239;28;20583;-58
2021/04/03 02:36:21;;;;;;;1.10;0.87;;;;;;;;;;5030407;28;20053;-58
2021/04/03 02:38:48;;;;;;;2.65;1.15;;;;;;;;;;5039660;28;20042;-58
2021/04/03 02:41:38;;;;;;;0.98;0.80;;;;;;;;;;5025802;28;20152;-58
2021/04/03 02:44:11;;;;;;;1.55;0.90;;;;;;;;;;5008596;28;20136;-58
2021/04/03 02:46:45;;;;;;;2.75;1.30;;;;;;;;;;5035936;28;20111;-58
2021/04/03 02:49:19;;;;;;;3.15;1.25;;;;;;;;;;5040046;28;20045;-58
2021/04/03 02:51:48;;;;;;;1.90;0.90;;;;;;;;;;5032568;28;20052;-57
2021/04/03 02:54:17;;;;;;;1.67;0.98;;;;;;;;;;5044229;28;20037;-58
2021/04/03 02:56:45;;;;;;;2.40;1.13;;;;;;;;;;5042919;28;20057;-58
2021/04/03 02:59:16;;;;;;;0.90;0.80;;;;;;;;;;5025854;28;20133;-58
2021/04/03 03:01:44;;;;;;;1.77;0.90;;;;;;;;;;5030797;28;20079;-58
2021/04/03 03:04:12;;;;;;;3.55;0.98;;;;;;;;;;5030893;28;20423;-58
2021/04/03 03:06:41;;;;;;;2.20;1.08;;;;;;;;;;5032530;28;20707;-58
2021/04/03 03:09:09;;;;;;;4.30;1.00;;;;;;;;;;5033048;28;20052;-58
2021/04/03 03:11:37;;;;;;;1.42;1.00;;;;;;;;;;5039013;28;20045;-58
2021/04/03 03:14:08;;;;;;;0.82;0.70;;;;;;;;;;5045153;28;20076;-58
2021/04/03 03:16:35;;;;;;;4.55;0.70;;;;;;;;;;5031536;28;20041;-58
2021/04/03 03:19:01;;;;;;;3.63;0.93;;;;;;;;;;5028729;28;20083;-58
2021/04/03 03:21:29;;;;;;;3.50;1.10;;;;;;;;;;5025520;28;20044;-58
2021/04/03 03:23:57;;;;;;;2.78;1.13;;;;;;;;;;5039869;28;20123;-58
2021/04/03 03:26:25;;;;;;;1.88;1.10;;;;;;;;;;5043671;28;20033;-58
2021/04/03 03:28:53;;;;;;;1.88;0.90;;;;;;;;;;5042549;28;20048;-58
2021/04/03 03:31:21;;;;;;;2.00;0.90;;;;;;;;;;5035831;28;20057;-58
2021/04/03 03:33:48;;;;;;;;;;;;;;;;;;5025074;28;20046;-58
2021/04/03 03:36:15;;;;;;;4.45;1.05;;;;;;;;;;5043471;28;19932;-58
2021/04/03 03:38:47;;;;;;;2.53;0.90;;;;;;;;;;5023147;28;20138;-58
2021/04/03 03:41:18;;;;;;;3.25;1.08;;;;;;;;;;5026526;28;20048;-58
2021/04/03 03:43:45;;;;;;;2.92;0.95;;;;;;;;;;5040941;28;20107;-57
2021/04/03 03:46:11;;;;;;;2.17;0.88;;;;;;;;;;5032656;28;20548;-58
2021/04/03 03:48:38;;;;;;;2.08;0.80;;;;;;;;;;5047026;28;20092;-58
2021/04/03 03:51:08;;;;;;;2.28;1.02;;;;;;;;;;5037228;28;20676;-58
2021/04/03 03:53:43;;;;;;;3.67;1.33;;;;;;;;;;5022104;28;20053;-58
2021/04/03 03:56:11;;;;;;;2.33;0.93;;;;;;;;;;5030996;28;20588;-58
2021/04/03 03:58:39;;;;;;;1.73;1.00;;;;;;;;;;5018414;28;20128;-58
2021/04/03 04:01:06;;;;;;;2.78;0.95;;;;;;;;;;5024570;28;20069;-58
2021/04/03 04:03:33;;;;;;;2.47;1.23;;;;;;;;;;5021867;28;20099;-58
2021/04/03 04:06:05;;;;;;;3.58;1.23;;;;;;;;;;5023618;28;20307;-57
2021/04/03 04:08:32;;;;;;;;;;;;;;;;;;5027412;28;20492;-57
2021/04/03 04:11:06;;;;;;;3.47;0.90;;;;;;;;;;5029145;28;19921;-57
2021/04/03 04:13:32;;;;;;;3.00;1.00;;;;;;;;;;5042489;28;20056;-60
2021/04/03 04:16:00;;;;;;;2.22;0.68;;;;;;;;;;5039834;28;20033;-60
2021/04/03 04:18:27;;;;;;;1.88;1.00;;;;;;;;;;5036954;28;20121;-60
2021/04/03 04:20:58;;;;;;;2.83;1.02;;;;;;;;;;5028654;28;20316;-60
2021/04/03 04:23:29;;;;;;;2.33;0.90;;;;;;;;;;5042124;28;20504;-60
2021/04/03 04:25:59;;;;;;;2.85;1.13;;;;;;;;;;5044485;28;20049;-60
2021/04/03 04:28:27;;;;;;;3.38;1.05;;;;;;;;;;5063878;28;20102;-60
2021/04/03 04:30:57;;;;;;;3.47;1.75;;;;;;;;;;5066542;28;20056;-60
2021/04/03 04:33:26;;;;;;;3.05;1.00;;;;;;;;;;5067946;28;20122;-60
2021/04/03 04:35:54;;;;;;;2.60;0.88;;;;;;;;;;5065278;28;20047;-60
2021/04/03 04:38:27;;;;;;;2.10;1.00;;;;;;;;;;5054508;28;20051;-60
2021/04/03 04:40:54;;;;;;;1.02;0.70;;;;;;;;;;5054287;28;20041;-60
2021/04/03 04:43:21;;;;;;;2.53;1.10;;;;;;;;;;5053535;28;20060;-60
2021/04/03 04:45:50;;;;;;;2.28;1.10;;;;;;;;;;5049751;28;20044;-60
2021/04/03 04:48:21;;;;;;;1.88;1.00;;;;;;;;;;5055015;28;20044;-60
2021/04/03 04:50:54;;;;;;;6.05;1.05;;;;;;;;;;5047953;28;20459;-60
2021/04/03 04:53:21;;;;;;;2.33;1.00;;;;;;;;;;5052764;28;20056;-60
2021/04/03 04:55:47;;;;;;;3.08;1.30;;;;;;;;;;5069012;28;20044;-60
2021/04/03 04:58:15;;;;;;;1.35;0.77;;;;;;;;;;5052655;28;20131;-60
2021/04/03 05:00:41;;;;;;;1.00;0.88;;;;;;;;;;5054631;28;20071;-60
2021/04/03 05:03:21;;;;;;;1.73;1.05;;;;;;;;;;5054531;28;20041;-60
2021/04/03 05:05:47;;;;;;;1.67;1.10;;;;;;;;;;5053887;28;20474;-60
2021/04/03 05:08:14;;;;;;;2.75;1.10;;;;;;;;;;5062246;28;20053;-61
2021/04/03 05:10:40;;;;;;;2.50;1.05;;;;;;;;;;5062348;28;20210;-61
2021/04/03 05:13:06;;;;;;;1.15;1.00;;;;;;;;;;5066611;28;20051;-60
2021/04/03 05:15:32;;;;;;;4.45;1.20;;;;;;;;;;5066340;28;20794;-60
2021/04/03 05:17:58;;;;;;;1.15;0.98;;;;;;;;;;5059288;28;20126;-60
2021/04/03 05:20:25;;;;;;;3.78;1.20;;;;;;;;;;5061917;28;20041;-60
2021/04/03 05:22:51;;;;;;;1.38;0.90;;;;;;;;;;5066576;28;20037;-60
2021/04/03 05:25:17;;;;;;;1.88;1.02;;;;;;;;;;5066576;28;20052;-60
2021/04/03 05:27:43;;;;;;;1.35;1.00;;;;;;;;;;5063771;28;20131;-60
2021/04/03 05:30:10;;;;;;;5.00;1.15;;;;;;;;;;5060221;28;20041;-60
2021/04/03 05:32:36;;;;;;;3.90;1.10;;;;;;;;;;5059748;28;20056;-60
2021/04/03 05:35:03;;;;;;;2.67;1.13;;;;;;;;;;5064856;28;20114;-60
2021/04/03 05:37:30;;;;;;;2.45;1.20;;;;;;;;;;5066679;28;20037;-60
2021/04/03 05:39:56;;;;;;;1.40;1.05;;;;;;;;;;5069152;28;20598;-60
2021/04/03 05:42:22;;;;;;;2.90;1.13;;;;;;;;;;5066372;28;20044;-59
2021/04/03 05:44:49;;;;;;;1.38;0.93;;;;;;;;;;5067324;28;20041;-60
2021/04/03 05:47:16;;;;;;;3.03;0.97;;;;;;;;;;5047256;28;20036;-60
2021/04/03 05:49:43;;;;;;;3.72;1.05;;;;;;;;;;5062546;28;20402;-60
2021/04/03 05:52:09;;;;;;;1.97;1.27;;;;;;;;;;5063194;28;20029;-60
2021/04/03 05:54:39;;;;;;;3.20;1.27;;;;;;;;;;5064305;28;20044;-60
2021/04/03 05:57:06;;;;;;;2.63;1.35;;;;;;;;;;5065083;28;20466;-59
2021/04/03 05:59:35;;;;;;;2.30;1.13;;;;;;;;;;5067783;28;20056;-60
2021/04/03 06:02:03;;;;;;;1.42;1.02;;;;;;;;;;5066499;28;20396;-60
2021/04/03 06:04:29;;;;;;;4.18;1.17;;;;;;;;;;5068132;28;20159;-60
2021/04/03 06:06:55;;;;;;;7.03;1.55;;;;;;;;;;5061385;28;20373;-60
2021/04/03 06:09:21;;;;;;;1.83;0.80;;;;;;;;;;5066288;28;20124;-60
2021/04/03 06:11:49;;;;;;;4.25;1.13;;;;;;;;;;5068314;28;20045;-60
2021/04/03 06:14:16;;;;;;;2.00;1.10;;;;;;;;;;5063846;28;20378;-60
2021/04/03 06:16:43;;;;;;;1.88;1.02;;;;;;;;;;5050848;28;20531;-60
2021/04/03 06:19:18;;;;;;;2.25;1.00;;;;;;;;;;5066398;28;20055;-60
2021/04/03 06:21:54;;;;;;;1.75;1.10;;;;;;;;;;5066542;28;20439;-60
2021/04/03 06:24:20;;;;;;;3.80;1.33;;;;;;;;;;5067976;28;20110;-60
2021/04/03 06:26:52;;;;;;;2.13;0.98;;;;;;;;;;5064840;28;20032;-61
2021/04/03 06:29:22;;;;;;;1.42;0.90;;;;;;;;;;5064170;28;20654;-60
2021/04/03 06:31:53;;;;;;;4.32;1.45;;;;;;;;;;5064844;28;20506;-60
2021/04/03 06:34:29;;;;;;;2.55;0.98;;;;;;;;;;5060378;28;20052;-60
2021/04/03 06:36:56;;;;;;;6.20;1.15;;;;;;;;;;5058918;28;20512;-60
2021/04/03 06:39:22;;;;;;;3.83;0.98;;;;;;;;;;5060523;28;20080;-60
2021/04/03 06:41:48;;;;;;;5.95;1.08;;;;;;;;;;5060870;28;20045;-60
2021/04/03 06:44:15;;;;;;;1.75;0.77;;;;;;;;;;5063554;28;20397;-60
2021/04/03 06:46:47;;;;;;;3.72;1.17;;;;;;;;;;5064904;28;20120;-58
2021/04/03 06:49:15;;;;;;;2.28;0.90;;;;;;;;;;5066086;28;20053;-57
2021/04/03 06:51:41;;;;;;;4.05;1.10;;;;;;;;;;5061609;28;20055;-59
2021/04/03 06:54:08;;;;;;;2.88;1.52;;;;;;;;;;5064861;28;20047;-59
2021/04/03 06:56:36;;;;;;;4.05;1.27;;;;;;;;;;5064747;28;20140;-59
2021/04/03 06:59:06;;;;;;;6.55;1.27;;;;;;;;;;5061063;28;20045;-58
2021/04/03 07:01:38;;;;;;;3.85;1.48;;;;;;;;;;5049936;28;20059;-59
2021/04/03 07:04:14;;;;;;;4.28;1.50;;;;;;;;;;5068039;28;20036;-58
2021/04/03 07:06:42;;;;;;;3.10;1.70;;;;;;;;;;5066000;28;20045;-59
2021/04/03 07:09:08;;;;;;;5.35;1.80;;;;;;;;;;5060712;28;20496;-59
2021/04/03 07:11:35;;;;;;;5.88;1.65;;;;;;;;;;5064616;28;20559;-59
2021/04/03 07:14:02;;;;;;;3.60;1.50;;;;;;;;;;5067873;28;20117;-59
2021/04/03 07:16:28;;;;;;;;;;;;;;;;;;5063138;28;20048;-59
2021/04/03 07:18:55;;;;;;;7.60;1.60;;;;;;;;;;5064935;28;19924;-59
2021/04/03 07:21:22;;;;;;;4.25;1.33;;;;;;;;;;5062711;28;20068;-59
2021/04/03 07:23:50;;;;;;;1.98;1.00;;;;;;;;;;5064707;28;20098;-59
2021/04/03 07:26:16;;;;;;;;;;;;;;;;;;5069305;28;20062;-59
2021/04/03 07:28:42;;;;;;;2.42;1.30;;;;;;;;;;5061272;28;20415;-59
2021/04/03 07:31:09;;;;;;;4.93;1.40;;;;;;;;;;5066376;28;20036;-59
2021/04/03 07:33:47;;;;;;;3.75;1.40;;;;;;;;;;5063590;28;20091;-59
2021/04/03 07:36:30;;;;;;;4.43;1.48;;;;;;;;;;5064018;28;20072;-59
2021/04/03 07:38:56;;;;;;;4.22;1.35;;;;;;;;;;5062952;28;20068;-59
2021/04/03 07:41:22;;;;;;;3.60;1.48;;;;;;;;;;5062409;28;20049;-60
2021/04/03 07:43:49;;;;;;;2.92;1.15;;;;;;;;;;5057705;28;20504;-59
2021/04/03 07:46:15;;;;;;;3.08;1.20;;;;;;;;;;5063941;28;20055;-59
2021/04/03 07:48:43;;;;;;;3.58;1.10;;;;;;;;;;5064350;28;20502;-59
2021/04/03 07:51:09;;;;;;;;;;;;;;;;;;5061492;28;20094;-59
2021/04/03 07:53:38;;;;;;;;;;;;;;;;;;5064518;28;19920;-60
2021/04/03 07:56:06;;;;;;;2.53;0.90;;;;;;;;;;5064345;28;19926;-60
2021/04/03 07:58:33;;;;;;;5.38;1.17;;;;;;;;;;5062479;28;20049;-59
2021/04/03 08:01:16;;;;;;;3.03;1.00;;;;;;;;;;5065385;28;20116;-60
2021/04/03 08:03:52;;;;;;;4.82;1.60;;;;;;;;;;5065093;28;20063;-60
2021/04/03 08:06:18;;;;;;;2.38;1.10;;;;;;;;;;5058421;28;20033;-60
2021/04/03 08:08:44;;;;;;;2.97;1.60;;;;;;;;;;5063875;28;20067;-59
2021/04/03 08:11:12;;;;;;;3.92;1.40;;;;;;;;;;5050276;28;20499;-60
2021/04/03 08:13:41;;;;;;;;;;;;;;;;;;5061024;28;20128;-60
2021/04/03 08:16:09;;;;;;;4.32;1.52;;;;;;;;;;5063103;28;20842;-60
2021/04/03 08:18:36;;;;;;;1.73;0.90;;;;;;;;;;5059634;28;20468;-60
2021/04/03 08:21:02;;;;;;;2.42;0.90;;;;;;;;;;5063270;28;20055;-60
2021/04/03 08:23:30;;;;;;;1.67;0.95;;;;;;;;;;5058672;28;20036;-59
2021/04/03 08:25:56;;;;;;;;;;;;;;;;;;5042956;28;20519;-59
2021/04/03 08:28:23;;;;;;;2.40;1.10;;;;;;;;;;5058198;28;19931;-60
2021/04/03 08:30:49;;;;;;;3.03;1.05;;;;;;;;;;5059068;28;20044;-60
2021/04/03 08:33:17;;;;;;;2.15;0.90;;;;;;;;;;5059663;28;20613;-60
2021/04/03 08:35:45;;;;;;;1.80;0.85;;;;;;;;;;5064704;28;20041;-60
2021/04/03 08:38:13;;;;;;;4.90;1.15;;;;;;;;;;5063514;28;20119;-59
2021/04/03 08:40:39;;;;;;;2.03;0.80;;;;;;;;;;5067135;28;20098;-60
2021/04/03 08:43:05;;;;;;;3.60;0.93;;;;;;;;;;5065572;28;20043;-60
2021/04/03 08:45:33;;;;;;;4.83;1.63;;;;;;;;;;5062170;28;20507;-60
2021/04/03 08:47:59;;;;;;;1.80;1.02;;;;;;;;;;5042933;28;20090;-60
2021/04/03 08:50:26;;;;;;;2.72;1.17;;;;;;;;;;5056459;28;20563;-60
2021/04/03 08:53:02;;;;;;;2.13;1.10;;;;;;;;;;5045751;28;20114;-60
2021/04/03 08:55:29;;;;;;;1.27;0.88;;;;;;;;;;5063100;28;20153;-60
2021/04/03 08:57:57;;;;;;;1.58;0.90;;;;;;;;;;5061412;28;20125;-60
2021/04/03 09:00:24;;;;;;;5.05;1.13;;;;;;;;;;5058170;28;20106;-60
2021/04/03 09:02:51;;;;;;;4.13;0.93;;;;;;;;;;5062121;28;20407;-60
2021/04/03 09:05:18;;;;;;;;;;;;;;;;;;5062895;28;20037;-60
2021/04/03 09:07:44;;;;;;;4.07;0.90;;;;;;;;;;5062787;28;20012;-60
2021/04/03 09:10:21;;;;;;;1.33;0.60;;;;;;;;;;5053320;28;20044;-60
2021/04/03 09:12:48;;;;;;;2.70;0.90;;;;;;;;;;5063545;28;20068;-60
2021/04/03 09:15:16;;;;;;;2.25;1.08;;;;;;;;;;5063137;28;20103;-60
2021/04/03 09:17:46;;;;;;;3.88;0.80;;;;;;;;;;5061725;28;20032;-60
2021/04/03 09:20:14;;;;;;;2.20;0.93;;;;;;;;;;5065083;28;20618;-60
2021/04/03 09:22:41;;;;;;;1.27;0.73;;;;;;;;;;5065049;28;20131;-60
2021/04/03 09:25:09;;;;;;;1.48;0.90;;;;;;;;;;5069101;28;20561;-60
2021/04/03 09:27:36;;;;;;;2.60;0.90;;;;;;;;;;5069909;28;20048;-60
2021/04/03 09:30:06;;;;;;;1.95;0.80;;;;;;;;;;5051914;28;20060;-60
2021/04/03 09:32:49;;;;;;;1.38;0.77;;;;;;;;;;5067070;28;20068;-60
2021/04/03 09:35:22;;;;;;;3.90;1.02;;;;;;;;;;5064386;28;20144;-60
2021/04/03 09:37:59;;;;;;;2.75;1.10;;;;;;;;;;5064520;28;20090;-60
2021/04/03 09:40:35;;;;;;;0.85;0.57;;;;;;;;;;5065190;28;20113;-60
2021/04/03 09:43:02;;;;;;;3.25;0.85;;;;;;;;;;5062926;28;20048;-60
2021/04/03 09:45:28;;;;;;;2.40;0.88;;;;;;;;;;5063940;28;20143;-60
2021/04/03 09:48:00;;;;;;;2.22;0.80;;;;;;;;;;5064783;28;20561;-60
2021/04/03 09:50:27;;;;;;;2.40;0.95;;;;;;;;;;5064064;28;20087;-60
2021/04/03 09:52:55;;;;;;;1.02;0.63;;;;;;;;;;5064852;28;20049;-60
2021/04/03 09:55:21;;;;;;;1.80;0.80;;;;;;;;;;5062133;28;20037;-60
2021/04/03 09:57:48;;;;;;;1.45;0.70;;;;;;;;;;5062039;28;20045;-60
2021/04/03 10:00:14;;;;;;;3.13;1.10;;;;;;;;;;5060001;28;20547;-60
2021/04/03 10:02:40;;;;;;;1.35;0.75;;;;;;;;;;5069160;28;20043;-60
2021/04/03 10:05:07;;;;;;;3.47;1.50;;;;;;;;;;5061834;28;20426;-60
2021/04/03 10:07:33;;;;;;;1.23;0.70;;;;;;;;;;5063841;28;20037;-60
2021/04/03 10:09:59;;;;;;;2.03;1.02;;;;;;;;;;5066018;28;20044;-60
2021/04/03 10:12:27;;;;;;;2.00;0.90;;;;;;;;;;5050148;28;20036;-60
2021/04/03 10:14:53;;;;;;;1.45;0.85;;;;;;;;;;5062885;28;20186;-60
2021/04/03 10:17:19;;;;;;;2.78;1.13;;;;;;;;;;5065504;28;20094;-60
2021/04/03 10:19:45;;;;;;;1.88;0.90;;;;;;;;;;5056990;28;20102;-60
2021/04/03 10:22:12;;;;;;;2.45;0.90;;;;;;;;;;5061447;28;20077;-60
2021/04/03 10:24:38;;;;;;;1.45;0.85;;;;;;;;;;5067408;28;20519;-60
2021/04/03 10:27:04;;;;;;;2.10;0.90;;;;;;;;;;5061615;28;20053;-60
2021/04/03 10:29:31;;;;;;;4.47;1.35;;;;;;;;;;5066823;28;20103;-60
2021/04/03 10:31:57;;;;;;;1.83;0.80;;;;;;;;;;5062356;28;20049;-60
2021/04/03 10:34:24;;;;;;;4.13;1.33;;;;;;;;;;5060266;28;20044;-60
2021/04/03 10:36:50;;;;;;;4.93;1.10;;;;;;;;;;5065276;28;20376;-60
2021/04/03 10:39:16;;;;;;;1.98;1.00;;;;;;;;;;5058755;28;20102;-60
2021/04/03 10:41:42;;;;;;;2.55;1.40;;;;;;;;;;5059668;28;20102;-60
2021/04/03 10:44:08;;;;;;;1.70;0.90;;;;;;;;;;5060549;28;20522;-60
2021/04/03 10:46:35;;;;;;;2.53;0.88;;;;;;;;;;5064647;28;20087;-60
2021/04/03 10:49:01;;;;;;;5.18;1.23;;;;;;;;;;5069383;28;20075;-60
2021/04/03 10:51:27;;;;;;;3.92;1.38;;;;;;;;;;5063026;28;20407;-60
2021/04/03 10:53:53;;;;;;;3.13;1.27;;;;;;;;;;5061361;28;20040;-60
2021/04/03 10:56:19;;;;;;;3.47;1.10;;;;;;;;;;5060698;28;20099;-59
2021/04/03 10:58:46;;;;;;;4.40;1.23;;;;;;;;;;5065155;28;20040;-59
2021/04/03 11:01:15;;;;;;;3.72;1.42;;;;;;;;;;5060658;28;20037;-59
2021/04/03 11:03:43;;;;;;;2.78;1.10;;;;;;;;;;5064461;28;20058;-59
2021/04/03 11:06:10;;;;;;;3.97;1.52;;;;;;;;;;5058508;28;20051;-59
2021/04/03 11:08:36;;;;;;;5.85;1.77;;;;;;;;;;5063268;28;20124;-60
2021/04/03 11:11:02;;;;;;;4.43;1.40;;;;;;;;;;5065203;28;20597;-59
2021/04/03 11:13:28;;;;;;;2.58;1.42;;;;;;;;;;5060603;28;20036;-59
2021/04/03 11:15:55;;;;;;;6.63;1.33;;;;;;;;;;5064370;28;20036;-59
2021/04/03 11:18:21;;;;;;;3.38;1.25;;;;;;;;;;5059454;28;20048;-59
2021/04/03 11:20:47;;;;;;;4.57;1.30;;;;;;;;;;5064615;28;20123;-59
2021/04/03 11:23:13;;;;;;;3.38;1.40;;;;;;;;;;5059321;28;20058;-59
2021/04/03 11:25:40;;;;;;;5.70;1.47;;;;;;;;;;5065447;28;20055;-59
2021/04/03 11:28:10;;;;;;;3.33;1.27;;;;;;;;;;5064963;28;20531;-59
2021/04/03 11:30:36;;;;;;;3.92;1.15;;;;;;;;;;5066015;28;20040;-59
2021/04/03 11:33:02;;;;;;;4.15;1.50;;;;;;;;;;5055630;28;20037;-59
2021/04/03 11:35:30;;;;;;;2.47;1.10;;;;;;;;;;5066724;28;20098;-60
2021/04/03 11:37:56;;;;;;;3.40;1.20;;;;;;;;;;5067053;28;20048;-59
2021/04/03 11:40:22;;;;;;;5.20;1.52;;;;;;;;;;5065163;28;20094;-60
2021/04/03 11:42:53;;;;;;;2.13;1.10;;;;;;;;;;5057413;28;20074;-59
2021/04/03 11:45:20;;;;;;;3.13;1.20;;;;;;;;;;5064035;28;20047;-60
2021/04/03 11:47:47;;;;;;;;;;;;;;;;;;5057662;28;20044;-59
2021/04/03 11:50:14;;;;;;;3.55;1.42;;;;;;;;;;5067023;28;19920;-59
2021/04/03 11:52:40;;;;;;;5.65;1.80;;;;;;;;;;5068423;28;20090;-60
2021/04/03 11:55:07;;;;;;;1.90;1.25;;;;;;;;;;5064439;28;20063;-59
2021/04/03 11:57:34;;;;;;;3.67;1.30;;;;;;;;;;5064157;28;20044;-59
2021/04/03 12:00:00;;;;;;;4.00;1.77;;;;;;;;;;5066795;28;20294;-59
2021/04/03 12:02:26;;;;;;;3.78;1.17;;;;;;;;;;5064697;28;20045;-59
2021/04/03 12:04:57;;;;;;;5.90;1.42;;;;;;;;;;5064357;28;20083;-59
2021/04/03 12:07:23;;;;;;;;;;;;;;;;;;5063339;28;20049;-60
2021/04/03 12:09:49;;;;;;;3.35;1.27;;;;;;;;;;5062218;28;19927;-60
2021/04/03 12:12:16;;;;;;;2.83;1.10;;;;;;;;;;5060142;28;20492;-59
2021/04/03 12:14:42;;;;;;;6.38;1.60;;;;;;;;;;5064442;28;20044;-60
2021/04/03 12:17:08;;;;;;;3.70;1.58;;;;;;;;;;5063114;28;20128;-59
2021/04/03 12:19:34;;;;;;;2.03;1.23;;;;;;;;;;5061365;28;20045;-59
2021/04/03 12:22:00;;;;;;;4.40;1.58;;;;;;;;;;5060107;28;20033;-59
2021/04/03 12:24:27;;;;;;;3.00;1.20;;;;;;;;;;5062953;28;20041;-59
2021/04/03 12:26:53;;;;;;;3.88;1.67;;;;;;;;;;5062093;28;20400;-60
2021/04/03 12:29:19;;;;;;;2.63;1.20;;;;;;;;;;5064141;28;20454;-59
2021/04/03 12:31:45;;;;;;;3.65;1.42;;;;;;;;;;5060681;28;20040;-59
2021/04/03 12:34:12;;;;;;;4.05;1.30;;;;;;;;;;5065769;28;20045;-59
2021/04/03 12:36:38;;;;;;;4.70;1.10;;;;;;;;;;5065609;28;20045;-60
2021/04/03 12:39:04;;;;;;;4.32;1.50;;;;;;;;;;5061689;28;20125;-59
2021/04/03 12:41:30;;;;;;;4.90;1.60;;;;;;;;;;5065241;28;20365;-59
2021/04/03 12:43:56;;;;;;;4.82;1.40;;;;;;;;;;5069164;28;20044;-60
2021/04/03 12:46:23;;;;;;;4.50;1.40;;;;;;;;;;5070664;28;20391;-60
2021/04/03 12:48:49;;;;;;;6.38;1.67;;;;;;;;;;5071880;28;20044;-59
2021/04/03 12:51:15;;;;;;;4.50;1.40;;;;;;;;;;5066705;28;20090;-60
2021/04/03 12:53:41;;;;;;;4.00;1.30;;;;;;;;;;5068402;28;20098;-59
2021/04/03 12:56:08;;;;;;;4.65;1.30;;;;;;;;;;5064079;28;20144;-60
2021/04/03 12:58:34;;;;;;;2.42;1.00;;;;;;;;;;5069308;28;20043;-59
2021/04/03 13:01:02;;;;;;;6.00;1.40;;;;;;;;;;5064411;28;20090;-60
2021/04/03 13:03:29;;;;;;;4.85;1.35;;;;;;;;;;5064281;28;20132;-60
2021/04/03 13:05:55;;;;;;;4.43;1.42;;;;;;;;;;5062303;28;20120;-59
2021/04/03 13:08:22;;;;;;;4.15;1.48;;;;;;;;;;5064931;28;20412;-60
2021/04/03 13:10:50;;;;;;;7.20;1.60;;;;;;;;;;5066614;28;20052;-60
2021/04/03 13:13:17;;;;;;;7.47;1.95;;;;;;;;;;5068546;28;20040;-60
2021/04/03 13:15:45;;;;;;;4.72;1.70;;;;;;;;;;5068260;28;20103;-60
2021/04/03 13:18:12;;;;;;;4.55;1.58;;;;;;;;;;5063042;28;20104;-60
2021/04/03 13:20:38;;;;;;;5.18;1.50;;;;;;;;;;5066250;28;20044;-60
2021/04/03 13:23:05;;;;;;;2.38;1.08;;;;;;;;;;5064054;28;20124;-60
2021/04/03 13:25:32;;;;;;;3.60;1.35;;;;;;;;;;5063699;28;20056;-60
2021/04/03 13:27:59;;;;;;;6.43;1.38;;;;;;;;;;5047102;28;20041;-60
2021/04/03 13:30:26;;;;;;;4.28;1.25;;;;;;;;;;5044219;28;20131;-60
2021/04/03 13:32:52;;;;;;;3.50;1.35;;;;;;;;;;5040084;28;20527;-60
2021/04/03 13:35:18;;;;;;;6.47;1.40;;;;;;;;;;5042880;28;20099;-60
2021/04/03 13:37:44;;;;;;;3.08;1.45;;;;;;;;;;5049349;28;20115;-60
2021/04/03 13:40:12;;;;;;;5.63;1.55;;;;;;;;;;5042542;28;20048;-59
2021/04/03 13:42:38;;;;;;;7.82;1.30;;;;;;;;;;5046569;28;20041;-60
2021/04/03 13:45:04;;;;;;;6.53;1.48;;;;;;;;;;5044660;28;20037;-60
2021/04/03 13:47:32;;;;;;;5.63;1.52;;;;;;;;;;5044988;28;20067;-60
2021/04/03 13:49:58;;;;;;;5.45;1.60;;;;;;;;;;5045662;28;20041;-60
2021/04/03 13:52:24;;;;;;;3.10;1.42;;;;;;;;;;5042385;28;20393;-60
2021/04/03 13:54:51;;;;;;;3.22;1.38;;;;;;;;;;5046125;28;20115;-60
2021/04/03 13:57:17;;;;;;;6.40;1.52;;;;;;;;;;5042064;28;20500;-62
2021/04/03 13:59:47;;;;;;;4.70;1.63;;;;;;;;;;5037523;28;20053;-60
2021/04/03 14:02:13;;;;;;;3.45;1.50;;;;;;;;;;5041758;28;20132;-60
2021/04/03 14:04:39;;;;;;;6.05;1.48;;;;;;;;;;5047694;28;20481;-61
2021/04/03 14:07:08;;;;;;;4.53;1.80;;;;;;;;;;5047571;28;20044;-60
2021/04/03 14:09:35;;;;;;;2.70;0.95;;;;;;;;;;5048119;28;20045;-62
2021/04/03 14:12:01;;;;;;;3.08;1.40;;;;;;;;;;5040899;28;20041;-60
2021/04/03 14:14:28;;;;;;;5.77;1.30;;;;;;;;;;5046492;28;20071;-60
2021/04/03 14:16:55;;;;;;;5.50;1.40;;;;;;;;;;5046184;28;20046;-60
2021/04/03 14:19:38;;;;;;;1.73;0.85;;;;;;;;;;5042354;28;20060;-60
2021/04/03 14:22:11;;;;;;;3.60;1.27;;;;;;;;;;5049891;28;20484;-60
2021/04/03 14:24:57;;;;;;;3.75;1.20;;;;;;;;;;5043619;28;20049;-60
2021/04/03 14:27:43;;;;;;;2.70;1.35;;;;;;;;;;5048913;28;20508;-60
2021/04/03 14:30:23;;;;;;;4.18;1.35;;;;;;;;;;5063818;28;20380;-59
2021/04/03 14:32:49;;;;;;;5.90;1.83;;;;;;;;;;5064101;28;20045;-60
2021/04/03 14:35:15;;;;;;;3.67;1.50;;;;;;;;;;5061766;28;20488;-59
2021/04/03 14:37:42;;;;;;;5.20;1.67;;;;;;;;;;5067446;28;20041;-60
2021/04/03 14:40:08;;;;;;;5.03;1.33;;;;;;;;;;5066004;28;20516;-59
2021/04/03 14:42:34;;;;;;;3.20;1.42;;;;;;;;;;5066224;28;20653;-59
2021/04/03 14:45:01;;;;;;;4.40;1.52;;;;;;;;;;5063105;28;20037;-59
2021/04/03 14:47:28;;;;;;;2.57;1.27;;;;;;;;;;5069967;28;20504;-59
2021/04/03 14:49:54;;;;;;;3.85;1.40;;;;;;;;;;5068747;28;20873;-59
2021/04/03 14:52:20;;;;;;;8.95;1.30;;;;;;;;;;5063538;28;20045;-59